createdAt,value
2023-04-16T00:02:14.812Z,99920.59
2023-04-16T00:04:42.273Z,99920.31
2023-04-16T00:07:09.621Z,99915.75
2023-04-16T00:09:36.916Z,99909.75
2023-04-16T00:12:04.351Z,99909.41
2023-04-16T00:14:31.598Z,99905.31
2023-04-16T00:16:58.937Z,99920.59
2023-04-16T00:19:26.244Z,99912.88
2023-04-16T00:21:53.609Z,99900.41
2023-04-16T00:24:20.845Z,99911.31
2023-04-16T00:26:48.124Z,99912.41
2023-04-16T00:29:15.648Z,99902.31
2023-04-16T00:31:42.907Z,99903.84
2023-04-16T00:34:10.403Z,99907.16
2023-04-16T00:36:37.727Z,99923.63
2023-04-16T00:39:05.692Z,99913.13
2023-04-16T00:41:32.934Z,99919.88
2023-04-16T00:44:00.195Z,99913.53
2023-04-16T00:46:27.512Z,99919.09
2023-04-16T00:48:54.858Z,99901.13
2023-04-16T00:51:22.088Z,99911.38
2023-04-16T00:53:49.436Z,99916.09
2023-04-16T00:56:17.772Z,99912.78
2023-04-16T00:58:45.261Z,99916.97
2023-04-16T01:01:14.505Z,99902.03
2023-04-16T01:03:46.372Z,99912.75
2023-04-16T01:06:14.047Z,99917.59
2023-04-16T01:08:41.315Z,99896.13
2023-04-16T01:11:08.721Z,99906.03
2023-04-16T01:13:39.359Z,99912.78
2023-04-16T01:16:08.173Z,99920.91
2023-04-16T01:18:35.827Z,99916.78
2023-04-16T01:21:04.128Z,99931.88
2023-04-16T01:23:31.692Z,99935.28
2023-04-16T01:25:59.070Z,99942.81
2023-04-16T01:28:26.388Z,99928.34
2023-04-16T01:30:53.666Z,99941.00
2023-04-16T01:33:41.198Z,99942.88
2023-04-16T01:36:09.049Z,99937.84
2023-04-16T01:38:36.692Z,99949.50
2023-04-16T01:41:03.975Z,99948.28
2023-04-16T01:43:31.258Z,99949.78
2023-04-16T01:46:29.724Z,99953.06
2023-04-16T01:48:57.690Z,99949.13
2023-04-16T01:51:24.980Z,99940.56
2023-04-16T01:53:52.320Z,99949.13
2023-04-16T01:56:19.587Z,99958.44
2023-04-16T01:58:47.548Z,99953.72
2023-04-16T02:01:16.806Z,99963.59
2023-04-16T02:03:45.359Z,99964.41
2023-04-16T02:06:13.007Z,99959.06
2023-04-16T02:08:40.993Z,99952.72
2023-04-16T02:11:08.342Z,99936.75
2023-04-16T02:13:36.071Z,99946.41
2023-04-16T02:16:03.428Z,99952.91
2023-04-16T02:18:51.192Z,99959.13
2023-04-16T02:21:20.574Z,99955.66
2023-04-16T02:23:51.683Z,99934.75
2023-04-16T02:26:23.104Z,99960.06
2023-04-16T02:28:51.145Z,99952.56
2023-04-16T02:31:22.429Z,99955.09
2023-04-16T02:33:50.023Z,99948.16
2023-04-16T02:36:17.303Z,99936.38
2023-04-16T02:38:44.534Z,99949.34
2023-04-16T02:41:11.851Z,99945.56
2023-04-16T02:43:39.160Z,99948.16
2023-04-16T02:46:06.749Z,99951.25
2023-04-16T02:48:34.150Z,99942.94
2023-04-16T02:51:01.414Z,99949.25
2023-04-16T02:53:28.719Z,99943.59
2023-04-16T02:55:56.084Z,99956.97
2023-04-16T02:58:24.798Z,99964.81
2023-04-16T03:00:52.768Z,99920.81
2023-04-16T03:03:20.553Z,99951.50
2023-04-16T03:05:48.176Z,99955.44
2023-04-16T03:08:16.947Z,99962.09
2023-04-16T03:10:44.271Z,99972.00
2023-04-16T03:13:11.548Z,99965.38
2023-04-16T03:15:38.844Z,99967.78
2023-04-16T03:18:06.270Z,99970.16
2023-04-16T03:20:33.598Z,99971.72
2023-04-16T03:23:01.286Z,99976.13
2023-04-16T03:25:28.641Z,99970.16
2023-04-16T03:27:56.833Z,99982.53
2023-04-16T03:30:24.598Z,99989.97
2023-04-16T03:32:52.114Z,99989.19
2023-04-16T03:35:19.626Z,99992.19
2023-04-16T03:37:46.969Z,99995.31
2023-04-16T03:40:14.611Z,99999.72
2023-04-16T03:42:42.576Z,100006.81
2023-04-16T03:45:10.242Z,100000.22
2023-04-16T03:47:38.724Z,100000.16
2023-04-16T03:50:06.344Z,99990.06
2023-04-16T03:52:33.818Z,100006.63
2023-04-16T03:55:03.742Z,100008.22
2023-04-16T03:57:31.973Z,100011.06
2023-04-16T04:00:06.427Z,100023.06
2023-04-16T04:02:41.762Z,100022.47
2023-04-16T04:05:16.066Z,100025.75
2023-04-16T04:07:44.618Z,100025.00
2023-04-16T04:10:12.056Z,100028.78
2023-04-16T04:12:41.998Z,100031.91
2023-04-16T04:15:09.928Z,100036.66
2023-04-16T04:17:37.255Z,100029.13
2023-04-16T04:20:05.012Z,100034.50
2023-04-16T04:22:32.390Z,100025.81
2023-04-16T04:24:59.747Z,100043.38
2023-04-16T04:27:29.301Z,100037.41
2023-04-16T04:29:56.921Z,100034.22
2023-04-16T04:32:24.991Z,100045.53
2023-04-16T04:34:52.342Z,100036.25
2023-04-16T04:37:19.609Z,100044.00
2023-04-16T04:39:46.966Z,100052.06
2023-04-16T04:42:14.330Z,100051.56
2023-04-16T04:44:41.770Z,100049.06
2023-04-16T04:47:09.676Z,100047.66
2023-04-16T04:49:36.975Z,100045.34
2023-04-16T04:52:04.250Z,100036.66
2023-04-16T04:54:32.618Z,100055.19
2023-04-16T04:57:00.168Z,100061.34
2023-04-16T04:59:28.362Z,100061.22
2023-04-16T05:01:55.879Z,100057.03
2023-04-16T05:04:23.149Z,100060.22
2023-04-16T05:06:50.502Z,100071.28
2023-04-16T05:09:17.903Z,100059.63
2023-04-16T05:11:45.146Z,100062.47
2023-04-16T05:14:12.469Z,100045.13
2023-04-16T05:16:39.787Z,100038.50
2023-04-16T05:19:07.165Z,100045.44
2023-04-16T05:21:34.617Z,100051.28
2023-04-16T05:24:01.903Z,100050.63
2023-04-16T05:26:29.269Z,100044.47
2023-04-16T05:28:56.597Z,100041.78
2023-04-16T05:31:24.150Z,100058.16
2023-04-16T05:33:51.473Z,100053.38
2023-04-16T05:36:18.750Z,100059.81
2023-04-16T05:38:46.159Z,100059.91
2023-04-16T05:41:13.410Z,100062.38
2023-04-16T05:43:40.722Z,100053.03
2023-04-16T05:46:08.060Z,100054.22
2023-04-16T05:48:35.424Z,100058.84
2023-04-16T05:51:02.859Z,100069.06
2023-04-16T05:53:30.303Z,100075.34
2023-04-16T05:55:57.585Z,100074.31
2023-04-16T05:58:24.868Z,100077.84
2023-04-16T06:00:52.207Z,100081.59
2023-04-16T06:03:19.628Z,100090.72
2023-04-16T06:05:47.012Z,100096.41
2023-04-16T06:08:14.300Z,100082.97
2023-04-16T06:10:41.607Z,100102.34
2023-04-16T06:13:08.875Z,100103.06
2023-04-16T06:15:36.129Z,100088.88
2023-04-16T06:18:03.556Z,100107.13
2023-04-16T06:20:31.035Z,100100.41
2023-04-16T06:22:58.339Z,100105.59
2023-04-16T06:25:25.794Z,100111.91
2023-04-16T06:27:53.109Z,100096.16
2023-04-16T06:30:20.619Z,100086.28
2023-04-16T06:32:48.158Z,100096.88
2023-04-16T06:35:15.504Z,100094.38
2023-04-16T06:37:43.931Z,100101.13
2023-04-16T06:40:11.534Z,100096.88
2023-04-16T06:42:38.795Z,100109.25
2023-04-16T06:45:06.797Z,100110.13
2023-04-16T06:47:34.119Z,100098.88
2023-04-16T06:50:01.385Z,100107.84
2023-04-16T06:52:29.210Z,100104.16
2023-04-16T06:54:56.592Z,100110.34
2023-04-16T06:57:23.868Z,100113.22
2023-04-16T06:59:51.264Z,100115.00
2023-04-16T07:02:18.791Z,100110.94
2023-04-16T07:04:46.323Z,100117.88
2023-04-16T07:07:13.626Z,100122.09
2023-04-16T07:09:41.060Z,100109.13
2023-04-16T07:12:08.449Z,100106.97
2023-04-16T07:14:35.714Z,100103.94
2023-04-16T07:17:02.963Z,100108.06
2023-04-16T07:19:32.604Z,100116.94
2023-04-16T07:22:00.331Z,100114.25
2023-04-16T07:24:27.662Z,100115.38
2023-04-16T07:26:54.983Z,100113.41
2023-04-16T07:29:22.245Z,100104.56
2023-04-16T07:31:49.708Z,100108.84
2023-04-16T07:34:17.071Z,100099.31
2023-04-16T07:36:44.409Z,100099.84
2023-04-16T07:39:12.335Z,100095.44
2023-04-16T07:41:41.179Z,100095.66
2023-04-16T07:44:08.507Z,100098.25
2023-04-16T07:46:45.513Z,100105.06
2023-04-16T07:49:14.552Z,100089.22
2023-04-16T07:51:41.880Z,100100.28
2023-04-16T07:54:09.231Z,100096.16
2023-04-16T07:56:36.504Z,100101.47
2023-04-16T07:59:18.543Z,100092.91
2023-04-16T08:01:49.824Z,100103.28
2023-04-16T08:04:23.133Z,100090.09
2023-04-16T08:06:51.544Z,100100.44
2023-04-16T08:09:22.750Z,100107.28
2023-04-16T08:11:50.159Z,100099.63
2023-04-16T08:14:17.668Z,100104.78
2023-04-16T08:16:45.131Z,100093.44
2023-04-16T08:19:12.749Z,100095.00
2023-04-16T08:21:40.542Z,100096.75
2023-04-16T08:24:08.053Z,100092.06
2023-04-16T08:26:35.427Z,100088.31
2023-04-16T08:29:02.727Z,100094.34
2023-04-16T08:31:30.053Z,100084.34
2023-04-16T08:33:57.382Z,100092.50
2023-04-16T08:36:24.620Z,100091.88
2023-04-16T08:38:52.360Z,100091.88
2023-04-16T08:41:19.680Z,100080.66
2023-04-16T08:43:47.102Z,100075.31
2023-04-16T08:46:15.374Z,100104.22
2023-04-16T08:48:43.638Z,100082.91
2023-04-16T08:51:11.194Z,100101.38
2023-04-16T08:53:54.002Z,100096.63
2023-04-16T08:56:22.974Z,100091.94
2023-04-16T08:58:50.874Z,100083.75
2023-04-16T09:01:18.771Z,100094.63
2023-04-16T09:03:47.387Z,100086.13
2023-04-16T09:06:16.399Z,100103.31
2023-04-16T09:08:46.741Z,100100.78
2023-04-16T09:11:14.152Z,100103.94
2023-04-16T09:13:41.480Z,100099.19
2023-04-16T09:16:09.527Z,100104.31
2023-04-16T09:18:36.821Z,100111.59
2023-04-16T09:21:04.800Z,100106.72
2023-04-16T09:23:32.143Z,100102.22
2023-04-16T09:25:59.440Z,100107.44
2023-04-16T09:28:43.398Z,100098.47
2023-04-16T09:31:12.322Z,100101.22
2023-04-16T09:33:39.617Z,100101.81
2023-04-16T09:36:07.615Z,100099.53
2023-04-16T09:38:51.524Z,100097.97
2023-04-16T09:41:19.088Z,100100.50
2023-04-16T09:43:59.207Z,100100.75
2023-04-16T09:46:30.776Z,100101.44
2023-04-16T09:48:58.292Z,100103.84
2023-04-16T09:51:27.026Z,100104.22
2023-04-16T09:53:54.954Z,100100.75
2023-04-16T09:56:24.972Z,100098.47
2023-04-16T09:58:57.618Z,100092.16
2023-04-16T10:01:25.506Z,100099.28
2023-04-16T10:03:54.170Z,100102.03
2023-04-16T10:06:22.989Z,100092.28
2023-04-16T10:08:51.400Z,100089.56
2023-04-16T10:11:19.315Z,100088.06
2023-04-16T10:13:46.677Z,100091.22
2023-04-16T10:16:14.006Z,100083.38
2023-04-16T10:18:42.350Z,100081.03
2023-04-16T10:21:12.197Z,100075.97
2023-04-16T10:23:40.035Z,100067.38
2023-04-16T10:26:07.428Z,100076.75
2023-04-16T10:28:37.582Z,100076.75
2023-04-16T10:31:07.642Z,100079.09
2023-04-16T10:33:36.587Z,100075.97
2023-04-16T10:36:14.176Z,100059.19
2023-04-16T10:38:45.352Z,100068.91
2023-04-16T10:41:12.760Z,100058.78
2023-04-16T10:43:42.665Z,100061.50
2023-04-16T10:46:26.819Z,100070.44
2023-04-16T10:48:54.582Z,100077.09
2023-04-16T10:51:33.111Z,100064.19
2023-04-16T10:54:04.239Z,100075.91
2023-04-16T10:56:35.342Z,100069.97
2023-04-16T10:59:06.500Z,100068.44
2023-04-16T11:01:55.082Z,100059.44
2023-04-16T11:04:25.446Z,100057.94
2023-04-16T11:07:11.685Z,100059.09
2023-04-16T11:10:02.135Z,100059.44
2023-04-16T11:12:29.369Z,100057.00
2023-04-16T11:15:15.634Z,100059.22
2023-04-16T11:17:46.869Z,100064.75
2023-04-16T11:20:27.752Z,100057.41
2023-04-16T11:22:56.698Z,100058.50
2023-04-16T11:25:29.883Z,100041.19
2023-04-16T11:27:59.289Z,100052.91
2023-04-16T11:30:37.496Z,100053.75
2023-04-16T11:33:08.779Z,100048.38
2023-04-16T11:35:36.128Z,100040.59
2023-04-16T11:38:04.170Z,100036.09
2023-04-16T11:40:31.824Z,100035.63
2023-04-16T11:43:14.304Z,100040.19
2023-04-16T11:46:01.596Z,100010.44
2023-04-16T11:48:49.646Z,100029.16
2023-04-16T11:51:17.146Z,100038.66
2023-04-16T11:53:52.908Z,100023.91
2023-04-16T11:56:30.070Z,100025.97
2023-04-16T11:59:10.275Z,100022.56
2023-04-16T12:01:38.316Z,100009.97
2023-04-16T12:04:06.373Z,100009.22
2023-04-16T12:06:33.935Z,100029.13
2023-04-16T12:09:01.493Z,100020.53
2023-04-16T12:11:41.402Z,100017.41
2023-04-16T12:14:09.358Z,100021.81
2023-04-16T12:16:36.725Z,100014.91
2023-04-16T12:19:04.551Z,100001.09
2023-04-16T12:21:45.026Z,100001.88
2023-04-16T12:24:13.763Z,100005.53
2023-04-16T12:26:42.783Z,100002.88
2023-04-16T12:29:16.626Z,100007.06
2023-04-16T12:31:44.375Z,100005.81
2023-04-16T12:34:11.769Z,99975.22
2023-04-16T12:36:39.138Z,99987.31
2023-04-16T12:39:07.491Z,99996.63
2023-04-16T12:41:36.940Z,99992.16
2023-04-16T12:44:09.197Z,99977.38
2023-04-16T12:46:37.539Z,99973.09
2023-04-16T12:49:05.019Z,99976.41
2023-04-16T12:51:33.309Z,99963.72
2023-04-16T12:54:01.493Z,99972.22
2023-04-16T12:56:28.739Z,99973.69
2023-04-16T12:58:56.219Z,99969.28
2023-04-16T13:01:23.679Z,99962.97
2023-04-16T13:03:51.217Z,99959.31
2023-04-16T13:06:18.752Z,99963.13
2023-04-16T13:08:46.030Z,99965.53
2023-04-16T13:11:13.447Z,99955.50
2023-04-16T13:13:40.958Z,99954.00
2023-04-16T13:16:08.735Z,99954.50
2023-04-16T13:18:40.169Z,99959.63
2023-04-16T13:21:07.457Z,99949.97
2023-04-16T13:23:35.268Z,99950.66
2023-04-16T13:26:02.620Z,99954.72
2023-04-16T13:28:29.862Z,99961.25
2023-04-16T13:30:57.507Z,99946.19
2023-04-16T13:33:25.966Z,99945.28
2023-04-16T13:35:53.276Z,99940.81
2023-04-16T13:38:20.558Z,99940.13
2023-04-16T13:40:47.805Z,99946.94
2023-04-16T13:43:16.643Z,99932.16
2023-04-16T13:45:43.992Z,99931.34
2023-04-16T13:48:11.332Z,99933.47
2023-04-16T13:50:38.590Z,99933.16
2023-04-16T13:53:05.869Z,99928.38
2023-04-16T13:55:33.167Z,99931.13
2023-04-16T13:58:00.494Z,99927.09
2023-04-16T14:00:27.790Z,99926.56
2023-04-16T14:02:55.209Z,99906.38
2023-04-16T14:05:25.137Z,99898.72
2023-04-16T14:07:53.862Z,99921.00
2023-04-16T14:10:21.274Z,99912.09
2023-04-16T14:12:48.561Z,99918.81
2023-04-16T14:15:15.907Z,99892.59
2023-04-16T14:17:43.957Z,99923.19
2023-04-16T14:20:12.809Z,99911.03
2023-04-16T14:22:40.170Z,99896.41
2023-04-16T14:25:07.628Z,99910.75
2023-04-16T14:27:35.158Z,99907.41
2023-04-16T14:30:02.466Z,99905.44
2023-04-16T14:32:30.628Z,99901.53
2023-04-16T14:34:57.969Z,99892.66
2023-04-16T14:37:26.352Z,99896.56
2023-04-16T14:39:54.107Z,99896.75
2023-04-16T14:42:22.422Z,99897.63
2023-04-16T14:44:49.790Z,99895.88
2023-04-16T14:47:17.103Z,99895.59
2023-04-16T14:49:44.382Z,99896.03
2023-04-16T14:52:11.684Z,99895.78
2023-04-16T14:54:38.948Z,99889.09
2023-04-16T14:57:06.223Z,99879.78
2023-04-16T14:59:33.580Z,99871.13
2023-04-16T15:02:01.137Z,99882.03
2023-04-16T15:04:28.598Z,99859.75
2023-04-16T15:06:59.043Z,99876.75
2023-04-16T15:09:27.551Z,99874.94
2023-04-16T15:11:54.891Z,99864.97
2023-04-16T15:14:22.174Z,99874.59
2023-04-16T15:16:49.650Z,99870.84
2023-04-16T15:19:17.690Z,99878.25
2023-04-16T15:21:47.495Z,99864.06
2023-04-16T15:24:15.964Z,99870.03
2023-04-16T15:26:43.442Z,99854.66
2023-04-16T15:29:10.841Z,99870.59
2023-04-16T15:31:38.124Z,99863.19
2023-04-16T15:34:05.587Z,99861.47
2023-04-16T15:36:33.336Z,99843.91
2023-04-16T15:39:00.708Z,99865.00
2023-04-16T15:41:29.225Z,99854.72
2023-04-16T15:43:56.505Z,99858.84
2023-04-16T15:46:23.835Z,99856.50
2023-04-16T15:48:51.178Z,99841.91
2023-04-16T15:51:18.468Z,99855.47
2023-04-16T15:53:45.881Z,99861.16
2023-04-16T15:56:13.191Z,99844.56
2023-04-16T15:58:40.489Z,99847.38
2023-04-16T16:01:07.735Z,99858.38
2023-04-16T16:03:36.136Z,99850.59
2023-04-16T16:06:08.498Z,99857.75
2023-04-16T16:08:36.063Z,99854.78
2023-04-16T16:11:03.351Z,99849.41
2023-04-16T16:13:30.670Z,99845.72
2023-04-16T16:15:57.973Z,99852.75
2023-04-16T16:18:25.211Z,99849.81
2023-04-16T16:20:57.407Z,99863.97
2023-04-16T16:23:25.156Z,99842.91
2023-04-16T16:25:52.524Z,99860.81
2023-04-16T16:28:20.611Z,99857.38
2023-04-16T16:30:48.088Z,99859.44
2023-04-16T16:33:15.468Z,99863.34
2023-04-16T16:35:42.753Z,99852.53
2023-04-16T16:38:10.023Z,99857.97
2023-04-16T16:40:38.562Z,99852.56
2023-04-16T16:43:05.962Z,99845.56
2023-04-16T16:45:33.297Z,99849.53
2023-04-16T16:48:00.666Z,99855.00
2023-04-16T16:50:27.939Z,99854.22
2023-04-16T16:52:55.262Z,99849.19
2023-04-16T16:55:22.673Z,99858.16
2023-04-16T16:57:50.117Z,99852.72
2023-04-16T17:00:19.968Z,99847.25
2023-04-16T17:02:48.360Z,99858.19
2023-04-16T17:05:15.761Z,99846.50
2023-04-16T17:07:43.059Z,99858.22
2023-04-16T17:10:13.090Z,99862.09
2023-04-16T17:12:40.853Z,99869.13
2023-04-16T17:15:08.576Z,99867.94
2023-04-16T17:17:35.987Z,99870.69
2023-04-16T17:20:08.897Z,99865.22
2023-04-16T17:22:37.071Z,99864.84
2023-04-16T17:25:04.757Z,99865.19
2023-04-16T17:27:35.164Z,99865.22
2023-04-16T17:30:03.134Z,99879.63
2023-04-16T17:32:32.488Z,99872.91
2023-04-16T17:35:04.513Z,99874.06
2023-04-16T17:37:32.060Z,99872.50
2023-04-16T17:39:59.555Z,99864.28
2023-04-16T17:42:26.807Z,99879.84
2023-04-16T17:44:54.114Z,99880.66
2023-04-16T17:47:21.483Z,99886.06
2023-04-16T17:49:48.868Z,99882.16
2023-04-16T17:52:16.317Z,99889.91
2023-04-16T17:54:43.738Z,99886.44
2023-04-16T17:57:11.163Z,99893.78
2023-04-16T17:59:38.493Z,99891.38
2023-04-16T18:02:06.018Z,99899.97
2023-04-16T18:04:33.513Z,99897.25
2023-04-16T18:07:00.974Z,99900.75
2023-04-16T18:09:28.345Z,99901.53
2023-04-16T18:11:56.755Z,99909.25
2023-04-16T18:14:24.142Z,99904.56
2023-04-16T18:16:51.423Z,99898.34
2023-04-16T18:19:18.712Z,99895.22
2023-04-16T18:21:46.051Z,99910.00
2023-04-16T18:24:13.973Z,99908.03
2023-04-16T18:26:41.478Z,99907.25
2023-04-16T18:29:09.195Z,99904.50
2023-04-16T18:31:36.713Z,99891.59
2023-04-16T18:34:04.114Z,99908.34
2023-04-16T18:36:31.644Z,99891.94
2023-04-16T18:39:01.475Z,99909.44
2023-04-16T18:41:43.745Z,99896.97
2023-04-16T18:44:11.193Z,99905.06
2023-04-16T18:46:38.538Z,99901.47
2023-04-16T18:49:05.981Z,99906.59
2023-04-16T18:51:33.279Z,99911.97
2023-04-16T18:54:00.573Z,99910.44
2023-04-16T18:56:29.762Z,99912.75
2023-04-16T18:58:57.063Z,99921.72
2023-04-16T19:01:24.354Z,99918.19
2023-04-16T19:03:51.680Z,99912.75
2023-04-16T19:06:18.964Z,99901.13
2023-04-16T19:08:46.290Z,99906.59
2023-04-16T19:11:13.588Z,99873.00
2023-04-16T19:13:40.891Z,99905.06
2023-04-16T19:16:11.536Z,99907.78
2023-04-16T19:18:39.153Z,99904.69
2023-04-16T19:21:07.165Z,99890.59
2023-04-16T19:23:34.519Z,99905.06
2023-04-16T19:26:01.860Z,99893.38
2023-04-16T19:28:29.195Z,99889.81
2023-04-16T19:30:56.456Z,99897.22
2023-04-16T19:33:23.767Z,99900.31
2023-04-16T19:35:51.047Z,99903.41
2023-04-16T19:38:18.370Z,99897.97
2023-04-16T19:40:46.746Z,99904.16
2023-04-16T19:43:14.173Z,99891.31
2023-04-16T19:45:48.334Z,99894.03
2023-04-16T19:48:15.847Z,99885.44
2023-04-16T19:50:43.267Z,99871.31
2023-04-16T19:53:11.175Z,99881.88
2023-04-16T19:55:41.798Z,99886.13
2023-04-16T19:58:09.321Z,99884.50
2023-04-16T20:00:37.842Z,99877.56
2023-04-16T20:03:05.552Z,99844.00
2023-04-16T20:05:32.931Z,99878.69
2023-04-16T20:08:00.396Z,99875.97
2023-04-16T20:10:27.865Z,99883.31
2023-04-16T20:12:55.154Z,99882.47
2023-04-16T20:15:22.490Z,99888.28
2023-04-16T20:17:49.975Z,99886.69
2023-04-16T20:20:17.446Z,99878.13
2023-04-16T20:22:44.792Z,99879.69
2023-04-16T20:25:14.495Z,99885.44
2023-04-16T20:27:41.821Z,99883.84
2023-04-16T20:30:09.467Z,99886.56
2023-04-16T20:32:36.731Z,99881.00
2023-04-16T20:35:05.516Z,99888.00
2023-04-16T20:37:38.062Z,99895.72
2023-04-16T20:40:09.556Z,99896.47
2023-04-16T20:42:36.858Z,99898.38
2023-04-16T20:45:04.944Z,99894.75
2023-04-16T20:47:34.849Z,99892.50
2023-04-16T20:50:02.908Z,99902.50
2023-04-16T20:52:30.173Z,99898.63
2023-04-16T20:54:57.887Z,99905.72
2023-04-16T20:57:25.856Z,99903.78
2023-04-16T20:59:53.204Z,99899.47
2023-04-16T21:02:21.095Z,99908.78
2023-04-16T21:04:48.534Z,99911.56
2023-04-16T21:07:15.915Z,99908.31
2023-04-16T21:09:43.240Z,99916.16
2023-04-16T21:12:10.538Z,99915.69
2023-04-16T21:14:37.867Z,99913.38
2023-04-16T21:17:05.239Z,99903.91
2023-04-16T21:19:32.531Z,99913.38
2023-04-16T21:21:59.776Z,99889.84
2023-04-16T21:24:27.056Z,99905.94
2023-04-16T21:26:54.297Z,99895.41
2023-04-16T21:29:21.591Z,99875.69
2023-04-16T21:31:48.923Z,99899.16
2023-04-16T21:34:16.371Z,99899.91
2023-04-16T21:36:43.732Z,99904.16
2023-04-16T21:39:11.557Z,99902.97
2023-04-16T21:41:39.074Z,99896.69
2023-04-16T21:44:06.410Z,99898.25
2023-04-16T21:46:33.721Z,99893.59
2023-04-16T21:49:01.373Z,99895.91
2023-04-16T21:51:31.376Z,99890.84
2023-04-16T21:53:58.694Z,99896.69
2023-04-16T21:56:26.099Z,99891.97
2023-04-16T21:58:53.351Z,99890.03
2023-04-16T22:01:20.737Z,99898.50
2023-04-16T22:03:50.766Z,99901.63
2023-04-16T22:06:18.413Z,99909.00
2023-04-16T22:08:45.727Z,99908.53
2023-04-16T22:11:13.063Z,99904.16
2023-04-16T22:13:42.368Z,99913.50
2023-04-16T22:16:11.780Z,99910.91
2023-04-16T22:18:41.097Z,99910.16
2023-04-16T22:21:08.424Z,99912.00
2023-04-16T22:23:35.964Z,99898.81
2023-04-16T22:26:04.169Z,99878.47
2023-04-16T22:28:31.575Z,99888.56
2023-04-16T22:30:58.828Z,99890.06
2023-04-16T22:33:29.042Z,99900.88
2023-04-16T22:35:56.315Z,99898.19
2023-04-16T22:38:23.785Z,99894.38
2023-04-16T22:40:51.052Z,99897.06
2023-04-16T22:43:18.321Z,99900.19
2023-04-16T22:45:48.696Z,99900.19
2023-04-16T22:48:16.457Z,99889.56
2023-04-16T22:50:48.638Z,99888.50
2023-04-16T22:53:16.056Z,99891.63
2023-04-16T22:55:43.307Z,99893.94
2023-04-16T22:58:10.731Z,99893.94
2023-04-16T23:00:38.150Z,99895.84
2023-04-16T23:03:05.576Z,99891.63
2023-04-16T23:05:33.152Z,99897.06
2023-04-16T23:08:01.193Z,99890.91
2023-04-16T23:10:28.465Z,99892.41
2023-04-16T23:12:55.942Z,99888.13
2023-04-16T23:15:23.206Z,99886.94
2023-04-16T23:17:50.547Z,99896.22
2023-04-16T23:20:17.885Z,99882.16
2023-04-16T23:22:45.272Z,99897.72
2023-04-16T23:25:12.664Z,99884.16
2023-04-16T23:27:39.956Z,99883.69
2023-04-16T23:30:08.333Z,99884.44
2023-04-16T23:32:35.856Z,99884.34
2023-04-16T23:35:03.228Z,99897.56
2023-04-16T23:37:30.509Z,99892.88
2023-04-16T23:39:57.779Z,99898.38
2023-04-16T23:42:25.033Z,99891.66
2023-04-16T23:44:52.385Z,99882.78
2023-04-16T23:47:19.622Z,99879.56
2023-04-16T23:49:46.932Z,99881.09
2023-04-16T23:52:14.265Z,99883.38
2023-04-16T23:54:41.514Z,99881.81
2023-04-16T23:57:08.895Z,99879.06
2023-04-16T23:59:36.181Z,99866.47
